createdAt,value
2018-04-28T00:02:11.251Z,4.77
2018-04-28T00:04:39.504Z,4.93
2018-04-28T00:07:07.019Z,8.23
2018-04-28T00:09:34.539Z,6.33
2018-04-28T00:12:02.027Z,3.37
2018-04-28T00:14:29.513Z,4.03
2018-04-28T00:17:00.207Z,4.50
2018-04-28T00:19:27.710Z,3.93
2018-04-28T00:21:55.190Z,4.67
2018-04-28T00:27:47.814Z,4.60
2018-04-28T00:30:30.227Z,2.87
2018-04-28T00:36:17.986Z,3.77
2018-04-28T00:41:47.166Z,5.10
2018-04-28T00:44:17.392Z,5.30
2018-04-28T00:50:04.576Z,4.47
2018-04-28T00:52:32.104Z,3.70
2018-04-28T00:55:01.080Z,9.77
2018-04-28T00:57:35.147Z,6.73
2018-04-28T01:00:19.181Z,5.97
2018-04-28T01:02:46.702Z,2.73
2018-04-28T01:05:16.970Z,5.03
2018-04-28T01:07:44.462Z,5.17
2018-04-28T01:10:11.993Z,3.70
2018-04-28T01:12:41.901Z,4.03
2018-04-28T01:15:26.303Z,4.70
2018-04-28T01:17:53.783Z,4.60
2018-04-28T01:20:31.102Z,4.87
2018-04-28T01:23:06.316Z,7.43
2018-04-28T01:25:41.403Z,7.40
2018-04-28T01:31:09.229Z,6.13
2018-04-28T01:33:47.130Z,7.50
2018-04-28T01:36:19.179Z,7.40
2018-04-28T01:38:46.677Z,9.10
2018-04-28T01:41:15.586Z,8.40
2018-04-28T01:43:43.955Z,8.53
2018-04-28T01:46:15.017Z,4.27
2018-04-28T01:48:47.071Z,3.50
2018-04-28T01:51:16.052Z,3.87
2018-04-28T01:56:57.928Z,6.70
2018-04-28T01:59:28.954Z,5.30
2018-04-28T02:02:18.259Z,6.70
2018-04-28T02:04:51.439Z,4.67
2018-04-28T02:07:18.923Z,3.53
2018-04-28T02:09:56.311Z,2.80
2018-04-28T02:12:26.339Z,3.97
2018-04-28T02:18:07.662Z,5.33
2018-04-28T02:20:52.894Z,3.63
2018-04-28T02:23:25.039Z,6.20
2018-04-28T02:25:55.299Z,5.80
2018-04-28T02:28:44.511Z,5.63
2018-04-28T02:31:12.943Z,2.03
2018-04-28T02:33:45.131Z,3.43
2018-04-28T02:39:24.079Z,3.00
2018-04-28T02:41:54.863Z,6.47
2018-04-28T02:44:33.967Z,5.60
2018-04-28T02:47:04.896Z,8.00
2018-04-28T02:52:47.303Z,4.33
2018-04-28T02:58:24.206Z,4.80
2018-04-28T03:00:57.453Z,6.77
2018-04-28T03:03:27.627Z,6.20
2018-04-28T03:06:05.600Z,4.50
2018-04-28T03:08:37.903Z,4.00
2018-04-28T03:11:05.386Z,7.03
2018-04-28T03:13:39.871Z,5.90
2018-04-28T03:19:21.310Z,5.97
2018-04-28T03:21:48.793Z,5.13
2018-04-28T03:24:23.046Z,5.23
2018-04-28T03:26:55.164Z,6.50
2018-04-28T03:29:22.678Z,7.70
2018-04-28T03:31:50.943Z,3.70
2018-04-28T03:37:23.506Z,7.50
2018-04-28T03:42:56.396Z,10.27
2018-04-28T03:45:39.499Z,4.73
2018-04-28T03:51:46.966Z,4.03
2018-04-28T03:54:29.183Z,4.33
2018-04-28T03:57:05.519Z,3.73
2018-04-28T03:59:44.804Z,7.60
2018-04-28T04:08:54.351Z,4.23
2018-04-28T04:11:31.371Z,3.67
2018-04-28T04:14:00.715Z,3.87
2018-04-28T04:19:55.215Z,5.87
2018-04-28T04:22:30.284Z,6.33
2018-04-28T04:25:23.027Z,8.03
2018-04-28T04:27:54.263Z,5.97
2018-04-28T04:30:27.558Z,4.63
2018-04-28T04:32:56.474Z,8.50
2018-04-28T04:35:33.758Z,4.17
2018-04-28T04:38:05.118Z,3.67
2018-04-28T04:43:40.686Z,5.40
2018-04-28T04:46:15.879Z,15.10
2018-04-28T04:48:48.277Z,7.77
2018-04-28T04:54:36.937Z,9.23
2018-04-28T04:57:10.027Z,7.23
2018-04-28T05:02:46.382Z,7.40
2018-04-28T05:05:25.855Z,9.90
2018-04-28T05:07:59.045Z,8.67
2018-04-28T05:10:44.942Z,9.00
2018-04-28T05:16:36.322Z,23.33
2018-04-28T05:19:09.264Z,9.53
2018-04-28T05:24:51.574Z,7.17
2018-04-28T05:30:29.739Z,4.73
2018-04-28T05:33:03.838Z,10.83
2018-04-28T05:38:38.015Z,5.43
2018-04-28T05:41:32.258Z,6.17
2018-04-28T05:44:21.455Z,6.53
2018-04-28T05:50:08.702Z,9.93
2018-04-28T05:52:57.868Z,5.47
2018-04-28T05:55:35.930Z,11.40
2018-04-28T06:01:32.431Z,10.43
2018-04-28T06:04:06.646Z,10.03
2018-04-28T06:06:39.355Z,9.80
2018-04-28T06:09:10.479Z,12.60
2018-04-28T06:15:02.946Z,14.50
2018-04-28T06:17:38.954Z,10.23
2018-04-28T06:23:11.434Z,12.37
2018-04-28T06:25:38.946Z,5.80
2018-04-28T06:28:06.435Z,11.93
2018-04-28T06:30:33.916Z,8.10
2018-04-28T06:33:01.455Z,9.13
2018-04-28T06:35:29.708Z,10.63
2018-04-28T06:37:57.194Z,8.20
2018-04-28T06:40:24.723Z,14.00
2018-04-28T06:42:52.213Z,9.60
2018-04-28T06:45:19.707Z,9.17
2018-04-28T06:47:47.265Z,6.33
2018-04-28T06:50:14.755Z,8.47
2018-04-28T06:52:42.282Z,9.93
2018-04-28T06:55:09.762Z,9.93
2018-04-28T06:57:37.243Z,7.50
2018-04-28T07:00:04.770Z,7.97
2018-04-28T07:02:32.268Z,13.17
2018-04-28T07:04:59.754Z,9.70
2018-04-28T07:07:27.301Z,10.57
2018-04-28T07:09:54.792Z,9.53
2018-04-28T07:12:22.310Z,5.80
2018-04-28T07:14:49.806Z,8.17
2018-04-28T07:17:17.299Z,7.90
2018-04-28T07:19:44.810Z,7.40
2018-04-28T07:22:13.056Z,9.20
2018-04-28T07:24:40.538Z,4.33
2018-04-28T07:27:08.054Z,5.77
2018-04-28T07:29:35.539Z,8.90
2018-04-28T07:32:03.059Z,10.40
2018-04-28T07:34:30.554Z,7.50
2018-04-28T07:36:58.853Z,8.63
2018-04-28T07:39:26.420Z,10.47
2018-04-28T07:41:53.915Z,10.17
2018-04-28T07:44:21.399Z,9.10
2018-04-28T07:46:48.914Z,7.17
2018-04-28T07:49:16.399Z,5.93
2018-04-28T07:51:44.659Z,7.37
2018-04-28T07:54:12.207Z,6.60
2018-04-28T07:56:39.695Z,4.27
2018-04-28T07:59:07.183Z,9.40
2018-04-28T08:01:34.696Z,6.43
2018-04-28T08:04:02.188Z,5.67
2018-04-28T08:06:29.735Z,7.17
2018-04-28T08:08:57.248Z,11.80
2018-04-28T08:11:24.738Z,8.77
2018-04-28T08:13:52.250Z,5.03
2018-04-28T08:16:19.738Z,7.17
2018-04-28T08:18:47.220Z,5.07
2018-04-28T08:21:14.734Z,6.63
2018-04-28T08:23:42.222Z,7.50
2018-04-28T08:26:09.731Z,7.97
2018-04-28T08:28:37.252Z,6.97
2018-04-28T08:31:04.767Z,5.53
2018-04-28T08:33:32.261Z,5.77
2018-04-28T08:35:59.816Z,7.20
2018-04-28T08:38:27.308Z,3.97
2018-04-28T08:40:55.563Z,7.83
2018-04-28T08:43:23.082Z,6.30
2018-04-28T08:45:51.340Z,5.10
2018-04-28T08:48:20.465Z,12.37
2018-04-28T08:50:48.727Z,5.13
2018-04-28T08:53:16.216Z,11.07
2018-04-28T08:55:43.739Z,4.90
2018-04-28T08:58:11.223Z,3.00
2018-04-28T09:00:57.411Z,6.00
2018-04-28T09:03:24.894Z,4.27
2018-04-28T09:05:53.150Z,7.70
2018-04-28T09:08:20.673Z,5.90
2018-04-28T09:10:48.168Z,6.33
2018-04-28T09:13:15.654Z,6.60
2018-04-28T09:15:43.942Z,8.43
2018-04-28T09:18:12.200Z,4.83
2018-04-28T09:20:39.709Z,6.87
2018-04-28T09:23:07.219Z,9.03
2018-04-28T09:25:34.707Z,7.70
2018-04-28T09:28:02.187Z,4.07
2018-04-28T09:30:29.707Z,2.30
2018-04-28T09:32:57.246Z,6.73
2018-04-28T09:35:24.692Z,5.10
2018-04-28T09:37:52.210Z,5.50
2018-04-28T09:40:19.699Z,7.37
2018-04-28T09:42:47.182Z,5.73
2018-04-28T09:45:14.697Z,3.47
2018-04-28T09:47:42.956Z,7.27
2018-04-28T09:50:10.446Z,5.57
2018-04-28T09:52:37.987Z,10.47
2018-04-28T09:55:05.476Z,5.23
2018-04-28T09:57:32.961Z,3.77
2018-04-28T10:00:13.207Z,3.70
2018-04-28T10:02:40.699Z,5.70
2018-04-28T10:05:08.951Z,5.63
2018-04-28T10:07:36.463Z,8.80
2018-04-28T10:10:04.718Z,5.77
2018-04-28T10:12:32.202Z,5.17
2018-04-28T10:14:59.726Z,3.80
2018-04-28T10:17:27.214Z,8.63
2018-04-28T10:19:54.710Z,7.67
2018-04-28T10:22:22.241Z,4.23
2018-04-28T10:24:49.734Z,3.13
2018-04-28T10:27:17.222Z,5.53
2018-04-28T10:29:44.747Z,5.50
2018-04-28T10:32:12.239Z,5.10
2018-04-28T10:34:39.735Z,6.70
2018-04-28T10:37:07.258Z,10.10
2018-04-28T10:39:34.750Z,5.60
2018-04-28T10:42:02.274Z,7.57
2018-04-28T10:44:30.533Z,5.13
2018-04-28T10:46:58.024Z,6.73
2018-04-28T10:49:26.327Z,7.80
2018-04-28T10:51:53.814Z,3.67
2018-04-28T10:54:22.076Z,6.10
2018-04-28T10:56:49.619Z,5.70
2018-04-28T10:59:17.111Z,7.87
2018-04-28T11:01:45.422Z,9.07
2018-04-28T11:04:12.906Z,8.50
2018-04-28T11:06:40.408Z,7.60
2018-04-28T11:09:08.222Z,7.83
2018-04-28T11:11:35.739Z,7.90
2018-04-28T11:14:03.223Z,8.93
2018-04-28T11:16:30.748Z,6.70
2018-04-28T11:18:58.231Z,4.93
2018-04-28T11:21:25.715Z,6.93
2018-04-28T11:23:53.227Z,3.70
2018-04-28T11:26:20.720Z,5.77
2018-04-28T11:28:48.982Z,5.17
2018-04-28T11:31:16.514Z,10.43
2018-04-28T11:33:44.044Z,5.90
2018-04-28T11:36:12.298Z,7.07
2018-04-28T11:38:39.808Z,6.00
2018-04-28T11:41:08.050Z,6.63
2018-04-28T11:43:35.537Z,8.90
2018-04-28T11:46:03.055Z,5.93
2018-04-28T11:48:30.542Z,4.30
2018-04-28T11:50:58.070Z,6.60
2018-04-28T11:53:26.331Z,4.50
2018-04-28T11:55:53.810Z,9.90
2018-04-28T11:58:21.331Z,8.30
2018-04-28T12:00:48.827Z,2.17
2018-04-28T12:03:16.363Z,3.77
2018-04-28T12:05:43.882Z,4.00
2018-04-28T12:08:11.363Z,4.60
2018-04-28T12:10:38.935Z,7.47
2018-04-28T12:13:06.426Z,4.60
2018-04-28T12:15:34.682Z,5.40
2018-04-28T12:18:02.195Z,7.67
2018-04-28T12:20:29.693Z,5.40
2018-04-28T12:22:57.191Z,5.90
2018-04-28T12:25:24.711Z,5.10
2018-04-28T12:27:52.207Z,7.63
2018-04-28T12:30:19.695Z,5.90
2018-04-28T12:32:47.212Z,3.37
2018-04-28T12:35:15.459Z,6.00
2018-04-28T12:37:42.955Z,6.37
2018-04-28T12:40:11.269Z,8.03
2018-04-28T12:42:38.762Z,7.03
2018-04-28T12:45:06.271Z,4.93
2018-04-28T12:47:33.767Z,6.03
2018-04-28T12:50:02.032Z,7.73
2018-04-28T12:52:29.547Z,6.40
2018-04-28T12:54:57.034Z,7.53
2018-04-28T12:57:24.647Z,6.60
2018-04-28T12:59:52.158Z,10.20
2018-04-28T13:02:19.634Z,7.67
2018-04-28T13:04:47.158Z,9.90
2018-04-28T13:07:14.646Z,7.57
2018-04-28T13:09:42.894Z,7.40
2018-04-28T13:12:10.431Z,9.67
2018-04-28T13:14:37.924Z,7.30
2018-04-28T13:17:05.411Z,5.87
2018-04-28T13:19:32.914Z,10.80
2018-04-28T13:22:01.166Z,8.00
2018-04-28T13:24:28.683Z,7.30
2018-04-28T13:26:56.218Z,7.90
2018-04-28T13:29:23.712Z,4.43
2018-04-28T13:31:51.994Z,5.77
2018-04-28T13:34:19.490Z,14.70
2018-04-28T13:36:47.014Z,6.60
2018-04-28T13:39:14.543Z,10.73
2018-04-28T13:41:42.039Z,4.00
2018-04-28T13:44:09.563Z,10.67
2018-04-28T13:46:37.051Z,6.20
2018-04-28T13:49:04.540Z,5.53
2018-04-28T13:51:32.055Z,5.83
2018-04-28T13:53:59.539Z,6.87
2018-04-28T13:56:27.794Z,5.53
2018-04-28T13:58:55.325Z,7.03
2018-04-28T14:01:22.829Z,4.10
2018-04-28T14:03:50.322Z,7.23
2018-04-28T14:06:17.838Z,4.00
2018-04-28T14:08:45.337Z,9.63
2018-04-28T14:11:12.819Z,4.10
2018-04-28T14:13:40.336Z,5.67
2018-04-28T14:16:07.834Z,10.00
2018-04-28T14:18:35.339Z,8.67
2018-04-28T14:21:02.880Z,4.50
2018-04-28T14:23:30.376Z,6.60
2018-04-28T14:25:58.227Z,5.93
2018-04-28T14:28:25.756Z,6.60
2018-04-28T14:30:53.250Z,3.43
2018-04-28T14:33:20.735Z,6.70
2018-04-28T14:35:48.250Z,5.87
2018-04-28T14:38:16.506Z,4.37
2018-04-28T14:40:44.000Z,5.17
2018-04-28T14:43:11.515Z,4.73
2018-04-28T14:45:39.007Z,5.57
2018-04-28T14:48:06.499Z,4.73
2018-04-28T14:50:34.030Z,2.97
2018-04-28T14:53:01.514Z,7.00
2018-04-28T14:55:29.011Z,6.70
2018-04-28T14:57:56.543Z,6.03
2018-04-28T15:00:24.037Z,7.43
2018-04-28T15:02:51.556Z,4.47
2018-04-28T15:05:19.051Z,6.70
2018-04-28T15:07:46.547Z,2.80
2018-04-28T15:10:14.078Z,7.23
2018-04-28T15:12:41.572Z,4.13
2018-04-28T15:15:09.064Z,3.60
2018-04-28T15:17:36.584Z,5.67
2018-04-28T15:20:04.071Z,5.23
2018-04-28T15:22:32.322Z,3.73
2018-04-28T15:25:00.602Z,8.00
2018-04-28T15:27:28.127Z,4.10
2018-04-28T15:29:55.615Z,5.13
2018-04-28T15:32:23.135Z,3.27
2018-04-28T15:34:51.401Z,8.77
2018-04-28T15:37:18.943Z,10.07
2018-04-28T15:39:46.440Z,6.10
2018-04-28T15:42:13.927Z,3.87
2018-04-28T15:44:42.235Z,7.50
2018-04-28T15:47:09.749Z,4.63
2018-04-28T15:49:37.420Z,3.70
2018-04-28T15:52:04.898Z,5.03
2018-04-28T15:54:32.383Z,6.40
2018-04-28T15:56:59.904Z,3.40
2018-04-28T15:59:27.395Z,5.27
2018-04-28T16:01:54.892Z,3.70
2018-04-28T16:04:22.436Z,6.20
2018-04-28T16:06:49.922Z,4.00
2018-04-28T16:09:17.414Z,5.03
2018-04-28T16:11:44.934Z,4.67
2018-04-28T16:14:12.432Z,6.60
2018-04-28T16:16:39.922Z,3.03
2018-04-28T16:19:08.210Z,4.20
2018-04-28T16:21:35.699Z,2.27
2018-04-28T16:24:03.945Z,2.17
2018-04-28T16:26:31.478Z,11.00
2018-04-28T16:28:58.973Z,2.10
2018-04-28T16:31:26.463Z,4.73
2018-04-28T16:33:53.989Z,4.00
2018-04-28T16:36:21.470Z,4.90
2018-04-28T16:38:48.959Z,5.10
2018-04-28T16:41:16.487Z,6.30
2018-04-28T16:43:44.015Z,4.20
2018-04-28T16:46:11.506Z,2.73
2018-04-28T16:48:39.035Z,4.80
2018-04-28T16:51:06.601Z,26.30
2018-04-28T16:53:34.035Z,7.73
2018-04-28T16:56:02.327Z,6.00
2018-04-28T16:58:29.814Z,4.03
2018-04-28T17:00:58.083Z,3.47
2018-04-28T17:03:26.363Z,5.37
2018-04-28T17:05:54.619Z,2.43
2018-04-28T17:08:22.106Z,1.57
2018-04-28T17:10:49.634Z,4.60
2018-04-28T17:13:17.118Z,4.70
2018-04-28T17:15:44.617Z,6.63
2018-04-28T17:18:12.139Z,4.53
2018-04-28T17:20:39.632Z,7.33
2018-04-28T17:23:07.129Z,6.97
2018-04-28T17:25:35.422Z,10.43
2018-04-28T17:28:03.710Z,3.07
2018-04-28T17:30:31.195Z,3.73
2018-04-28T17:32:59.498Z,3.57
2018-04-28T17:35:26.979Z,2.40
2018-04-28T17:37:54.476Z,3.60
2018-04-28T17:40:22.002Z,6.40
2018-04-28T17:42:49.580Z,2.93
2018-04-28T17:45:16.999Z,4.10
2018-04-28T17:47:44.535Z,4.40
2018-04-28T17:50:12.019Z,4.37
2018-04-28T17:52:39.523Z,3.20
2018-04-28T17:55:07.042Z,2.30
2018-04-28T17:57:34.534Z,11.80
2018-04-28T18:00:02.031Z,4.80
2018-04-28T18:02:29.547Z,4.20
2018-04-28T18:04:57.027Z,8.53
2018-04-28T18:07:24.585Z,13.83
2018-04-28T18:09:52.055Z,13.40
2018-04-28T18:12:19.539Z,8.73
2018-04-28T18:14:47.026Z,7.80
2018-04-28T18:17:14.563Z,5.70
2018-04-28T18:19:42.051Z,5.57
2018-04-28T18:22:10.318Z,5.77
2018-04-28T18:24:37.863Z,5.87
2018-04-28T18:27:06.114Z,14.50
2018-04-28T18:29:33.614Z,24.47
2018-04-28T18:32:01.153Z,16.77
2018-04-28T18:34:28.635Z,6.30
2018-04-28T18:36:56.123Z,5.63
2018-04-28T18:39:23.647Z,5.20
2018-04-28T18:41:51.142Z,2.20
2018-04-28T18:44:18.639Z,13.53
2018-04-28T18:46:46.167Z,7.40
2018-04-28T18:49:13.675Z,12.70
2018-04-28T18:51:41.209Z,7.40
2018-04-28T18:54:08.744Z,4.00
2018-04-28T18:56:37.006Z,11.77
2018-04-28T18:59:04.507Z,26.13
2018-04-28T19:01:32.796Z,11.03
2018-04-28T19:04:01.051Z,5.10
2018-04-28T19:06:28.538Z,3.30
2018-04-28T19:08:56.116Z,7.80
2018-04-28T19:11:24.387Z,23.20
2018-04-28T19:13:51.892Z,13.27
2018-04-28T19:16:19.405Z,9.53
2018-04-28T19:18:46.902Z,13.40
2018-04-28T19:21:14.391Z,8.47
2018-04-28T19:23:41.931Z,8.83
2018-04-28T19:26:09.424Z,62.53
2018-04-28T19:28:36.975Z,39.10
2018-04-28T19:31:04.516Z,21.57
2018-04-28T19:33:32.001Z,15.23
2018-04-28T19:35:59.547Z,14.13
2018-04-28T19:38:27.055Z,6.83
2018-04-28T19:40:54.559Z,39.80
2018-04-28T19:43:22.093Z,42.40
2018-04-28T19:45:49.597Z,10.20
2018-04-28T19:48:17.107Z,8.30
2018-04-28T19:50:44.628Z,6.83
2018-04-28T19:53:12.888Z,5.47
2018-04-28T19:55:40.387Z,13.43
2018-04-28T19:58:08.695Z,40.07
2018-04-28T20:00:36.188Z,14.93
2018-04-28T20:03:03.679Z,7.47
2018-04-28T20:05:31.242Z,16.40
2018-04-28T20:07:58.768Z,9.90
2018-04-28T20:10:26.314Z,9.27
2018-04-28T20:12:53.874Z,21.00
2018-04-28T20:15:21.419Z,52.37
2018-04-28T20:17:48.926Z,25.03
2018-04-28T20:20:16.487Z,25.30
2018-04-28T20:25:44.620Z,8.70
2018-04-28T20:28:12.134Z,7.07
2018-04-28T20:30:39.660Z,6.20
2018-04-28T20:33:07.212Z,12.93
2018-04-28T20:35:34.724Z,73.07
2018-04-28T20:38:02.317Z,24.43
2018-04-28T20:40:29.826Z,4.83
2018-04-28T20:42:57.353Z,6.63
2018-04-28T20:45:24.924Z,10.70
2018-04-28T20:47:52.411Z,7.13
2018-04-28T20:50:20.044Z,6.03
2018-04-28T20:52:49.779Z,7.10
2018-04-28T20:55:18.063Z,10.80
2018-04-28T20:57:46.415Z,9.07
2018-04-28T21:00:13.973Z,9.37
2018-04-28T21:02:41.479Z,8.70
2018-04-28T21:05:09.087Z,13.90
2018-04-28T21:07:36.651Z,6.50
2018-04-28T21:10:04.177Z,18.40
2018-04-28T21:12:31.774Z,27.70
2018-04-28T21:14:59.301Z,29.23
2018-04-28T21:17:26.971Z,12.30
2018-04-28T21:19:54.514Z,9.83
2018-04-28T21:22:22.799Z,7.20
2018-04-28T21:24:50.321Z,6.80
2018-04-28T21:27:17.872Z,6.50
2018-04-28T21:29:45.444Z,16.20
2018-04-28T21:32:12.992Z,12.57
2018-04-28T21:34:40.560Z,5.63
2018-04-28T21:37:08.830Z,6.10
2018-04-28T21:39:36.347Z,12.00
2018-04-28T21:42:03.945Z,14.63
2018-04-28T21:44:31.550Z,4.97
2018-04-28T21:46:59.143Z,20.77
2018-04-28T21:49:27.150Z,33.93
2018-04-28T21:51:54.646Z,39.10
2018-04-28T21:54:22.195Z,49.70
2018-04-28T21:56:49.723Z,8.70
2018-04-28T21:59:17.228Z,10.63
2018-04-28T22:01:44.749Z,6.60
2018-04-28T22:04:12.309Z,4.60
2018-04-28T22:06:39.884Z,6.70
2018-04-28T22:09:07.509Z,11.03
2018-04-28T22:11:35.042Z,10.57
2018-04-28T22:14:02.586Z,15.23
2018-04-28T22:16:30.186Z,6.10
2018-04-28T22:18:57.724Z,5.43
2018-04-28T22:21:25.361Z,7.53
2018-04-28T22:23:52.898Z,6.10
2018-04-28T22:26:20.442Z,4.73
2018-04-28T22:28:47.943Z,6.33
2018-04-28T22:31:15.450Z,3.50
2018-04-28T22:33:42.975Z,4.43
2018-04-28T22:36:12.529Z,5.37
2018-04-28T22:38:40.038Z,9.07
2018-04-28T22:41:07.594Z,25.70
2018-04-28T22:43:35.090Z,8.07
2018-04-28T22:46:02.645Z,119.63
2018-04-28T22:48:30.184Z,121.90
2018-04-28T22:50:57.716Z,30.93
2018-04-28T22:53:25.244Z,48.97
2018-04-28T22:55:52.734Z,26.70
2018-04-28T22:58:20.231Z,9.67
2018-04-28T23:00:47.763Z,9.00
2018-04-28T23:03:15.258Z,8.00
2018-04-28T23:05:42.755Z,6.17
2018-04-28T23:08:10.396Z,5.40
2018-04-28T23:10:37.903Z,6.00
2018-04-28T23:13:06.298Z,10.73
2018-04-28T23:15:34.673Z,8.97
2018-04-28T23:18:02.449Z,3.93
2018-04-28T23:20:30.030Z,4.90
2018-04-28T23:22:57.772Z,4.90
2018-04-28T23:25:25.339Z,3.63
2018-04-28T23:27:52.896Z,4.93
2018-04-28T23:30:23.563Z,8.30
2018-04-28T23:32:52.213Z,7.13
2018-04-28T23:35:20.351Z,78.10
2018-04-28T23:37:48.974Z,127.20
2018-04-28T23:40:17.531Z,78.77
2018-04-28T23:42:45.150Z,24.20
2018-04-28T23:45:13.522Z,6.30
2018-04-28T23:47:42.025Z,23.30
2018-04-28T23:50:13.730Z,23.43
2018-04-28T23:52:41.280Z,15.30
2018-04-28T23:55:09.597Z,36.93
2018-04-28T23:57:37.144Z,30.70
